Time;durP1;ratioP1;P1;durP2;ratioP2;P2;SDS_P1;SDS_P2;PMS_P1;PMS_P2;Temp;Humidity;BMP_temperature;BMP_pressure;BME280_temperature;BME280_humidity;BME280_pressure;Samples;Min_cycle;Max_cycle;Signal;HPM_P1;HPM_P2
2023/04/05 00:00:58;;;;;;;8.57;5.63;;;;;;;;;;4936446;29;20038;-77
2023/04/05 00:03:24;;;;;;;10.18;5.35;;;;;;;;;;4936382;29;20027;-77
2023/04/05 00:05:53;;;;;;;8.75;5.20;;;;;;;;;;4930261;29;20038;-77
2023/04/05 00:08:22;;;;;;;9.55;5.30;;;;;;;;;;4917627;29;20487;-77
2023/04/05 00:10:52;;;;;;;11.48;4.88;;;;;;;;;;4900284;29;20127;-77
2023/04/05 00:13:18;;;;;;;10.50;5.40;;;;;;;;;;4917366;29;20071;-77
2023/04/05 00:15:44;;;;;;;12.10;5.10;;;;;;;;;;4917434;29;20378;-77
2023/04/05 00:18:22;;;;;;;9.82;4.95;;;;;;;;;;4917140;29;20456;-77
2023/04/05 00:20:51;;;;;;;7.07;4.53;;;;;;;;;;4917267;29;20112;-77
2023/04/05 00:23:17;;;;;;;10.57;5.07;;;;;;;;;;4917121;29;20443;-77
2023/04/05 00:25:44;;;;;;;8.98;5.28;;;;;;;;;;4917038;29;20477;-77
2023/04/05 00:28:10;;;;;;;14.23;5.25;;;;;;;;;;4916992;29;20024;-77
2023/04/05 00:30:36;;;;;;;10.68;5.20;;;;;;;;;;4916902;29;20039;-77
2023/04/05 00:33:02;;;;;;;11.63;5.25;;;;;;;;;;4916948;29;20032;-77
2023/04/05 00:35:29;;;;;;;9.27;5.25;;;;;;;;;;4900026;29;20080;-77
2023/04/05 00:37:55;;;;;;;8.23;5.63;;;;;;;;;;4899635;29;20024;-77
2023/04/05 00:40:21;;;;;;;10.50;5.32;;;;;;;;;;4916636;29;20028;-77
2023/04/05 00:42:47;;;;;;;11.75;5.93;;;;;;;;;;4917031;29;20028;-77
2023/04/05 00:45:13;;;;;;;11.20;5.53;;;;;;;;;;4916831;29;20047;-77
2023/04/05 00:47:43;;;;;;;11.45;6.03;;;;;;;;;;4916759;29;20064;-77
2023/04/05 00:50:11;;;;;;;13.65;5.85;;;;;;;;;;4916867;29;20021;-77
2023/04/05 00:52:37;;;;;;;10.32;5.90;;;;;;;;;;4916973;29;20542;-77
2023/04/05 00:55:06;;;;;;;11.68;5.65;;;;;;;;;;4915911;29;20135;-77
2023/04/05 00:57:33;;;;;;;10.38;5.63;;;;;;;;;;4916538;29;20076;-77
2023/04/05 01:00:00;;;;;;;10.82;5.43;;;;;;;;;;4899744;29;20028;-77
2023/04/05 01:02:33;;;;;;;10.73;5.68;;;;;;;;;;4916528;29;20036;-77
2023/04/05 01:05:04;;;;;;;12.13;6.47;;;;;;;;;;4916452;29;20456;-77
2023/04/05 01:07:42;;;;;;;10.77;5.93;;;;;;;;;;4916571;29;20107;-77
2023/04/05 01:10:10;;;;;;;13.00;6.10;;;;;;;;;;4916619;29;20032;-77
2023/04/05 01:12:37;;;;;;;11.95;5.50;;;;;;;;;;4916445;29;20033;-77
2023/04/05 01:15:03;;;;;;;10.98;5.65;;;;;;;;;;4916533;29;20030;-77
2023/04/05 01:17:35;;;;;;;13.13;7.25;;;;;;;;;;4916242;29;20119;-77
2023/04/05 01:20:09;;;;;;;13.50;6.53;;;;;;;;;;4916738;29;20071;-77
2023/04/05 01:22:39;;;;;;;10.90;6.00;;;;;;;;;;4916539;29;20033;-77
2023/04/05 01:25:29;;;;;;;10.68;6.20;;;;;;;;;;4916721;29;20044;-77
2023/04/05 01:28:14;;;;;;;10.45;6.30;;;;;;;;;;4897881;29;20033;-77
2023/04/05 01:30:41;;;;;;;11.20;5.50;;;;;;;;;;4916337;29;20111;-77
2023/04/05 01:33:19;;;;;;;11.88;5.95;;;;;;;;;;4916189;29;20087;-76
2023/04/05 01:35:55;;;;;;;9.20;5.60;;;;;;;;;;4916112;29;20148;-76
2023/04/05 01:38:26;;;;;;;11.02;6.10;;;;;;;;;;4916368;29;20467;-77
2023/04/05 01:40:53;;;;;;;12.60;5.68;;;;;;;;;;4916552;29;20448;-77
2023/04/05 01:43:19;;;;;;;12.20;6.22;;;;;;;;;;4919772;29;20032;-77
2023/04/05 01:45:45;;;;;;;13.73;6.20;;;;;;;;;;4919902;29;20020;-77
2023/04/05 01:48:12;;;;;;;10.82;5.85;;;;;;;;;;4919910;29;20095;-77
2023/04/05 01:50:38;;;;;;;10.60;6.13;;;;;;;;;;4919692;29;20122;-77
2023/04/05 01:53:04;;;;;;;10.88;6.32;;;;;;;;;;4919721;29;20035;-77
2023/04/05 01:55:30;;;;;;;9.90;6.07;;;;;;;;;;4918391;29;20487;-77
2023/04/05 01:57:57;;;;;;;12.55;6.15;;;;;;;;;;4919754;29;20032;-77
2023/04/05 02:00:23;;;;;;;11.35;5.97;;;;;;;;;;4902678;29;20046;-77
2023/04/05 02:02:50;;;;;;;10.77;5.55;;;;;;;;;;4919735;29;20486;-77
2023/04/05 02:05:16;;;;;;;14.73;5.90;;;;;;;;;;4919498;29;20043;-77
2023/04/05 02:07:42;;;;;;;9.93;5.38;;;;;;;;;;4919883;29;20040;-77
2023/04/05 02:10:08;;;;;;;10.25;5.15;;;;;;;;;;4919465;29;20120;-77
2023/04/05 02:12:34;;;;;;;9.45;5.55;;;;;;;;;;4919410;29;20028;-76
2023/04/05 02:15:00;;;;;;;10.00;5.75;;;;;;;;;;4919565;29;20364;-77
2023/04/05 02:17:32;;;;;;;14.52;6.15;;;;;;;;;;4919609;29;20066;-77
2023/04/05 02:20:07;;;;;;;10.18;6.13;;;;;;;;;;4919792;29;20024;-77
2023/04/05 02:22:34;;;;;;;11.07;6.32;;;;;;;;;;4919696;29;20036;-77
2023/04/05 02:25:00;;;;;;;12.40;6.53;;;;;;;;;;4919249;29;20388;-77
2023/04/05 02:27:26;;;;;;;11.18;5.85;;;;;;;;;;4919321;29;20028;-77
2023/04/05 02:29:54;;;;;;;12.02;6.25;;;;;;;;;;4919136;29;20028;-77
2023/04/05 02:32:20;;;;;;;12.55;5.65;;;;;;;;;;4919378;29;20476;-77
2023/04/05 02:34:46;;;;;;;12.52;6.68;;;;;;;;;;4918797;29;20032;-77
2023/04/05 02:37:18;;;;;;;14.35;6.57;;;;;;;;;;4901840;29;20364;-77
2023/04/05 02:39:44;;;;;;;11.27;5.93;;;;;;;;;;4918913;29;20040;-77
2023/04/05 02:42:10;;;;;;;9.07;5.60;;;;;;;;;;4918917;29;20028;-77
2023/04/05 02:44:36;;;;;;;11.63;6.10;;;;;;;;;;4918898;29;20028;-77
2023/04/05 02:47:02;;;;;;;13.00;5.80;;;;;;;;;;4918962;29;20031;-77
2023/04/05 02:49:28;;;;;;;10.05;5.78;;;;;;;;;;4918721;29;20052;-77
2023/04/05 02:51:55;;;;;;;11.88;6.18;;;;;;;;;;4901654;29;20055;-77
2023/04/05 02:54:21;;;;;;;10.27;5.60;;;;;;;;;;4917543;29;20128;-77
2023/04/05 02:56:48;;;;;;;11.18;5.38;;;;;;;;;;4918559;29;20040;-77
2023/04/05 02:59:15;;;;;;;10.77;5.82;;;;;;;;;;4918729;29;20025;-77
2023/04/05 03:01:43;;;;;;;10.55;5.65;;;;;;;;;;4918516;29;20463;-77
2023/04/05 03:04:12;;;;;;;10.85;5.47;;;;;;;;;;4918400;29;20464;-77
2023/04/05 03:06:47;;;;;;;11.50;5.75;;;;;;;;;;4918553;29;20036;-77
2023/04/05 03:09:13;;;;;;;11.10;5.90;;;;;;;;;;4901351;29;20040;-77
2023/04/05 03:11:39;;;;;;;10.68;5.88;;;;;;;;;;4918274;29;20379;-77
2023/04/05 03:14:05;;;;;;;11.27;5.63;;;;;;;;;;4918586;29;20160;-77
2023/04/05 03:16:31;;;;;;;13.27;6.38;;;;;;;;;;4918316;29;20107;-77
2023/04/05 03:18:58;;;;;;;14.10;6.00;;;;;;;;;;4918249;29;20111;-77
2023/04/05 03:21:25;;;;;;;13.68;6.35;;;;;;;;;;4918411;29;20032;-77
2023/04/05 03:23:51;;;;;;;12.23;5.75;;;;;;;;;;4918443;29;20032;-77
2023/04/05 03:26:17;;;;;;;11.63;6.97;;;;;;;;;;4901034;29;20032;-77
2023/04/05 03:28:44;;;;;;;13.05;6.10;;;;;;;;;;4918032;29;20032;-76
2023/04/05 03:31:10;;;;;;;13.38;6.38;;;;;;;;;;4918352;29;20031;-77
2023/04/05 03:33:36;;;;;;;11.45;6.50;;;;;;;;;;4917908;29;20379;-77
2023/04/05 03:36:04;;;;;;;10.27;6.53;;;;;;;;;;4918139;29;20089;-77
2023/04/05 03:38:31;;;;;;;11.57;6.13;;;;;;;;;;4918126;29;20028;-77
2023/04/05 03:40:57;;;;;;;11.93;5.97;;;;;;;;;;4918914;29;20072;-77
2023/04/05 03:43:23;;;;;;;14.90;6.38;;;;;;;;;;4918558;29;20024;-77
2023/04/05 03:45:51;;;;;;;12.57;5.93;;;;;;;;;;4917870;29;20032;-77
2023/04/05 03:48:19;;;;;;;10.80;5.63;;;;;;;;;;4917727;29;20032;-77
2023/04/05 03:50:45;;;;;;;15.98;6.25;;;;;;;;;;4918102;29;20024;-77
2023/04/05 03:53:11;;;;;;;11.75;6.30;;;;;;;;;;4917617;29;20083;-77
2023/04/05 03:55:38;;;;;;;12.35;6.20;;;;;;;;;;4916688;29;20139;-77
2023/04/05 03:58:04;;;;;;;10.13;5.60;;;;;;;;;;4917788;29;20031;-77
2023/04/05 04:00:30;;;;;;;15.68;6.03;;;;;;;;;;4918298;29;20103;-78
2023/04/05 04:02:56;;;;;;;12.98;6.78;;;;;;;;;;4918786;29;20051;-78
2023/04/05 04:05:22;;;;;;;11.20;5.63;;;;;;;;;;4916860;29;20384;-76
2023/04/05 04:07:48;;;;;;;14.63;6.45;;;;;;;;;;4917539;29;20069;-77
2023/04/05 04:10:18;;;;;;;10.82;6.13;;;;;;;;;;4917159;29;20028;-76
2023/04/05 04:12:44;;;;;;;10.05;6.35;;;;;;;;;;4931560;29;20043;-77
2023/04/05 04:15:11;;;;;;;13.18;6.68;;;;;;;;;;4936985;29;20102;-77
2023/04/05 04:17:38;;;;;;;12.55;6.15;;;;;;;;;;4936283;29;20471;-77
2023/04/05 04:20:10;;;;;;;14.63;6.45;;;;;;;;;;4921303;29;20035;-77
2023/04/05 04:22:37;;;;;;;11.70;6.68;;;;;;;;;;4916896;29;20028;-77
2023/04/05 04:25:15;;;;;;;14.60;7.55;;;;;;;;;;4917062;29;20413;-77
2023/04/05 04:27:42;;;;;;;16.35;7.18;;;;;;;;;;4909046;29;20059;-77
2023/04/05 04:30:09;;;;;;;12.65;7.40;;;;;;;;;;4935859;29;20102;-77
2023/04/05 04:35:19;;;;;;;15.93;7.57;;;;;;;;;;4936000;29;20028;-77
2023/04/05 04:37:51;;;;;;;11.73;7.20;;;;;;;;;;4935406;29;20062;-77
2023/04/05 04:40:18;;;;;;;13.98;7.40;;;;;;;;;;4935929;29;20106;-77
2023/04/05 04:42:47;;;;;;;15.43;7.47;;;;;;;;;;4918624;29;20123;-77
2023/04/05 04:45:17;;;;;;;14.43;6.78;;;;;;;;;;4918408;29;20348;-77
2023/04/05 04:47:47;;;;;;;11.55;7.10;;;;;;;;;;4935609;29;20536;-77
2023/04/05 04:50:14;;;;;;;12.18;7.10;;;;;;;;;;4935042;29;20031;-77
2023/04/05 04:52:41;;;;;;;13.27;8.30;;;;;;;;;;4935154;29;20104;-77
2023/04/05 04:55:08;;;;;;;14.35;7.90;;;;;;;;;;4934763;29;20044;-77
2023/04/05 04:57:34;;;;;;;15.93;8.35;;;;;;;;;;4935856;29;20122;-78
2023/04/05 05:00:00;;;;;;;15.23;8.27;;;;;;;;;;4935445;29;20099;-78
2023/04/05 05:02:26;;;;;;;16.70;7.82;;;;;;;;;;4934089;29;20055;-76
2023/04/05 05:04:52;;;;;;;12.93;7.38;;;;;;;;;;4925565;29;20036;-76
2023/04/05 05:07:19;;;;;;;19.40;9.00;;;;;;;;;;4914818;29;20063;-76
2023/04/05 05:09:45;;;;;;;14.02;7.47;;;;;;;;;;4914685;29;20076;-75
2023/04/05 05:12:11;;;;;;;14.77;7.97;;;;;;;;;;4914899;29;20035;-76
2023/04/05 05:14:37;;;;;;;14.90;7.47;;;;;;;;;;4897820;29;20230;-76
2023/04/05 05:17:05;;;;;;;16.60;7.38;;;;;;;;;;4918945;29;20246;-76
2023/04/05 05:19:31;;;;;;;15.13;8.30;;;;;;;;;;4925640;29;20028;-76
2023/04/05 05:21:57;;;;;;;15.32;8.02;;;;;;;;;;4927289;29;20027;-76
2023/04/05 05:24:23;;;;;;;12.63;8.18;;;;;;;;;;4928396;29;20027;-76
2023/04/05 05:26:50;;;;;;;14.85;7.65;;;;;;;;;;4926931;29;20028;-76
2023/04/05 05:29:16;;;;;;;16.23;8.38;;;;;;;;;;4926409;29;20028;-76
2023/04/05 05:31:42;;;;;;;15.23;7.97;;;;;;;;;;4925781;29;20504;-76
2023/04/05 05:34:08;;;;;;;14.57;8.57;;;;;;;;;;4927468;29;20585;-75
2023/04/05 05:36:34;;;;;;;15.55;8.88;;;;;;;;;;4925693;29;20035;-75
2023/04/05 05:39:00;;;;;;;17.58;7.40;;;;;;;;;;4921136;29;20063;-76
2023/04/05 05:41:26;;;;;;;14.02;8.02;;;;;;;;;;4927532;29;20114;-76
2023/04/05 05:43:53;;;;;;;14.55;7.43;;;;;;;;;;4927033;29;20506;-75
2023/04/05 05:46:19;;;;;;;16.55;8.38;;;;;;;;;;4926939;29;20027;-75
2023/04/05 05:48:45;;;;;;;15.02;8.30;;;;;;;;;;4910960;29;20067;-76
2023/04/05 05:51:11;;;;;;;14.52;8.68;;;;;;;;;;4926769;29;20047;-76
2023/04/05 05:53:38;;;;;;;14.38;7.85;;;;;;;;;;4926757;29;20028;-76
2023/04/05 05:56:04;;;;;;;14.45;8.52;;;;;;;;;;4927645;29;20055;-76
2023/04/05 05:58:30;;;;;;;17.35;7.75;;;;;;;;;;4926580;29;20024;-76
2023/04/05 06:00:57;;;;;;;15.25;8.93;;;;;;;;;;4919626;29;20028;-76
2023/04/05 06:03:24;;;;;;;19.17;8.30;;;;;;;;;;4918025;29;20103;-76
2023/04/05 06:05:54;;;;;;;16.88;8.57;;;;;;;;;;4917921;29;20060;-76
2023/04/05 06:08:20;;;;;;;16.10;10.63;;;;;;;;;;4918704;29;20036;-76
2023/04/05 06:10:46;;;;;;;15.90;8.40;;;;;;;;;;4919488;29;20028;-76
2023/04/05 06:13:12;;;;;;;14.18;8.05;;;;;;;;;;4919453;29;20031;-76
2023/04/05 06:15:38;;;;;;;15.57;8.85;;;;;;;;;;4902090;29;20269;-76
2023/04/05 06:18:04;;;;;;;17.85;9.63;;;;;;;;;;4917716;29;20040;-76
2023/04/05 06:20:30;;;;;;;16.13;9.43;;;;;;;;;;4918788;29;20024;-76
2023/04/05 06:22:56;;;;;;;14.50;8.75;;;;;;;;;;4918160;29;20028;-77
2023/04/05 06:25:22;;;;;;;15.85;8.93;;;;;;;;;;4917580;29;20392;-76
2023/04/05 06:27:48;;;;;;;16.52;9.13;;;;;;;;;;4916695;29;20073;-76
2023/04/05 06:30:14;;;;;;;15.65;8.70;;;;;;;;;;4917466;29;20039;-76
2023/04/05 06:32:40;;;;;;;16.33;9.63;;;;;;;;;;4917650;29;20028;-76
2023/04/05 06:35:06;;;;;;;19.70;10.48;;;;;;;;;;4917193;29;20034;-75
2023/04/05 06:37:32;;;;;;;18.85;9.57;;;;;;;;;;4917416;29;20043;-76
2023/04/05 06:39:59;;;;;;;16.60;9.48;;;;;;;;;;4917495;29;20387;-76
2023/04/05 06:42:25;;;;;;;15.13;9.75;;;;;;;;;;4917498;29;20031;-76
2023/04/05 06:44:51;;;;;;;17.25;9.25;;;;;;;;;;4917163;29;20099;-76
2023/04/05 06:47:17;;;;;;;14.75;9.23;;;;;;;;;;4917118;29;20415;-76
2023/04/05 06:49:43;;;;;;;16.70;9.05;;;;;;;;;;4917513;29;20028;-77
2023/04/05 06:52:09;;;;;;;16.98;9.18;;;;;;;;;;4917022;29;20028;-76
2023/04/05 06:54:38;;;;;;;15.00;10.10;;;;;;;;;;4915847;29;20056;-76
2023/04/05 06:57:04;;;;;;;20.70;11.13;;;;;;;;;;4924341;29;20040;-76
2023/04/05 06:59:30;;;;;;;18.35;9.50;;;;;;;;;;4925345;29;20027;-76
2023/04/05 07:01:56;;;;;;;14.07;8.35;;;;;;;;;;4916625;29;20028;-76
2023/04/05 07:04:22;;;;;;;18.40;9.38;;;;;;;;;;4924409;29;20066;-77
2023/04/05 07:06:48;;;;;;;14.07;8.88;;;;;;;;;;4937496;29;20146;-76
2023/04/05 07:09:14;;;;;;;13.40;9.18;;;;;;;;;;4938252;29;20082;-77
2023/04/05 07:11:40;;;;;;;15.45;8.43;;;;;;;;;;4937751;29;20126;-76
2023/04/05 07:14:06;;;;;;;16.38;9.02;;;;;;;;;;4933700;29;20067;-77
2023/04/05 07:16:32;;;;;;;14.65;8.43;;;;;;;;;;4916356;29;20067;-77
2023/04/05 07:18:58;;;;;;;16.42;9.10;;;;;;;;;;4900341;29;20032;-77
2023/04/05 07:21:25;;;;;;;13.85;9.05;;;;;;;;;;4916729;29;20039;-78
2023/04/05 07:23:54;;;;;;;15.75;9.45;;;;;;;;;;4916793;29;20016;-78
2023/04/05 07:26:21;;;;;;;14.02;9.02;;;;;;;;;;4916581;29;20032;-77
2023/04/05 07:28:47;;;;;;;15.23;9.50;;;;;;;;;;4916669;29;20025;-78
2023/04/05 07:31:14;;;;;;;12.10;8.48;;;;;;;;;;4916483;29;20080;-78
2023/04/05 07:33:40;;;;;;;13.63;8.35;;;;;;;;;;4916327;29;20024;-78
2023/04/05 07:36:07;;;;;;;12.98;8.57;;;;;;;;;;4916677;29;20028;-78
2023/04/05 07:38:33;;;;;;;14.18;8.40;;;;;;;;;;4933307;29;20457;-78
2023/04/05 07:40:59;;;;;;;17.50;9.45;;;;;;;;;;4935081;29;20102;-78
2023/04/05 07:43:25;;;;;;;14.98;9.15;;;;;;;;;;4934943;29;20103;-78
2023/04/05 07:45:52;;;;;;;15.38;8.75;;;;;;;;;;4934535;29;20095;-78
2023/04/05 07:48:18;;;;;;;16.40;9.43;;;;;;;;;;4935896;29;20118;-77
2023/04/05 07:50:46;;;;;;;13.73;9.18;;;;;;;;;;4934170;29;20027;-78
2023/04/05 07:53:12;;;;;;;13.95;9.07;;;;;;;;;;4921139;29;20028;-78
2023/04/05 07:55:38;;;;;;;12.60;8.68;;;;;;;;;;4925753;29;20143;-78
2023/04/05 07:58:04;;;;;;;13.45;9.50;;;;;;;;;;4929612;29;20043;-78
2023/04/05 08:00:30;;;;;;;11.70;8.90;;;;;;;;;;4923436;29;20352;-78
2023/04/05 08:02:56;;;;;;;15.27;9.90;;;;;;;;;;4927050;29;20028;-79
2023/04/05 08:05:22;;;;;;;14.05;9.20;;;;;;;;;;4924586;29;20028;-79
2023/04/05 08:07:48;;;;;;;14.93;9.60;;;;;;;;;;4924678;29;20036;-79
2023/04/05 08:10:14;;;;;;;12.93;9.52;;;;;;;;;;4924949;29;20110;-79
2023/04/05 08:12:40;;;;;;;11.80;8.93;;;;;;;;;;4910974;29;20027;-79
2023/04/05 08:15:06;;;;;;;12.23;9.27;;;;;;;;;;4932431;29;20557;-80
2023/04/05 08:17:32;;;;;;;12.00;8.88;;;;;;;;;;4929598;29;20454;-79
2023/04/05 08:19:59;;;;;;;10.95;8.02;;;;;;;;;;4936677;29;20088;-79
2023/04/05 08:22:27;;;;;;;13.32;9.40;;;;;;;;;;4937108;29;20392;-79
2023/04/05 08:24:53;;;;;;;11.48;8.90;;;;;;;;;;4934704;29;20028;-79
2023/04/05 08:27:19;;;;;;;14.98;10.25;;;;;;;;;;4934663;29;20103;-79
2023/04/05 08:29:45;;;;;;;11.52;8.82;;;;;;;;;;4934899;29;20043;-79
2023/04/05 08:32:11;;;;;;;10.65;8.45;;;;;;;;;;4936521;29;20434;-79
2023/04/05 08:34:37;;;;;;;10.13;8.43;;;;;;;;;;4917515;29;20119;-79
2023/04/05 08:37:04;;;;;;;10.27;7.80;;;;;;;;;;4916299;29;20047;-79
2023/04/05 08:39:32;;;;;;;11.70;8.80;;;;;;;;;;4917355;29;20027;-79
2023/04/05 08:42:03;;;;;;;12.05;8.82;;;;;;;;;;4924610;29;20027;-79
2023/04/05 08:44:30;;;;;;;12.15;8.68;;;;;;;;;;4933517;29;20463;-79
2023/04/05 08:46:57;;;;;;;12.00;8.93;;;;;;;;;;4935889;29;20414;-79
2023/04/05 08:49:23;;;;;;;11.15;8.30;;;;;;;;;;4936967;29;20035;-79
2023/04/05 08:51:49;;;;;;;12.57;8.93;;;;;;;;;;4936204;29;20024;-79
2023/04/05 08:54:16;;;;;;;11.23;8.52;;;;;;;;;;4937373;29;20043;-79
2023/04/05 08:56:43;;;;;;;10.15;7.50;;;;;;;;;;4935599;29;20055;-79
2023/04/05 08:59:10;;;;;;;11.73;8.20;;;;;;;;;;4937525;29;20032;-79
2023/04/05 09:01:37;;;;;;;11.30;7.35;;;;;;;;;;4946359;29;20024;-80
2023/04/05 09:04:07;;;;;;;10.57;8.07;;;;;;;;;;4956233;29;20019;-81
2023/04/05 09:06:35;;;;;;;12.07;8.15;;;;;;;;;;4936854;29;20028;-79
2023/04/05 09:09:05;;;;;;;9.80;7.18;;;;;;;;;;4924203;29;20028;-79
2023/04/05 09:11:32;;;;;;;11.05;7.32;;;;;;;;;;4928250;29;20504;-79
2023/04/05 09:13:58;;;;;;;11.00;7.68;;;;;;;;;;4926357;29;20024;-79
2023/04/05 09:16:25;;;;;;;11.20;6.88;;;;;;;;;;4933056;29;20674;-79
2023/04/05 09:18:51;;;;;;;10.60;7.15;;;;;;;;;;4930523;29;20059;-79
2023/04/05 09:21:18;;;;;;;10.00;7.90;;;;;;;;;;4918037;29;20044;-79
2023/04/05 09:23:52;;;;;;;8.68;6.78;;;;;;;;;;4917478;29;20032;-79
2023/04/05 09:26:20;;;;;;;10.40;7.40;;;;;;;;;;4917903;29;20399;-79
2023/04/05 09:28:46;;;;;;;11.45;7.30;;;;;;;;;;4918066;29;20016;-79
2023/04/05 09:31:31;;;;;;;10.15;6.75;;;;;;;;;;4919995;29;20032;-79
2023/04/05 09:33:58;;;;;;;10.65;7.68;;;;;;;;;;4928707;29;20119;-79
2023/04/05 09:36:24;;;;;;;9.00;7.05;;;;;;;;;;4924984;29;20036;-79
2023/04/05 09:38:50;;;;;;;9.85;7.03;;;;;;;;;;4918094;29;20032;-79
2023/04/05 09:41:16;;;;;;;9.75;6.97;;;;;;;;;;4917335;29;20513;-79
2023/04/05 09:43:42;;;;;;;10.23;7.18;;;;;;;;;;4918058;29;20028;-79
2023/04/05 09:46:38;;;;;;;10.85;7.15;;;;;;;;;;4900208;29;20497;-79
2023/04/05 09:49:05;;;;;;;8.10;6.50;;;;;;;;;;4914128;29;20051;-79
2023/04/05 09:51:36;;;;;;;8.75;7.47;;;;;;;;;;4927679;29;20016;-79
2023/04/05 09:54:06;;;;;;;9.40;7.82;;;;;;;;;;4910429;29;20016;-79
2023/04/05 09:56:31;;;;;;;;;;;;;;;;;;4923781;29;20106;-79
2023/04/05 09:59:16;;;;;;;8.98;7.07;;;;;;;;;;4927337;29;19911;-79
2023/04/05 10:01:43;;;;;;;8.93;6.57;;;;;;;;;;4936417;29;20387;-79
2023/04/05 10:04:09;;;;;;;9.60;6.88;;;;;;;;;;4939356;29;20031;-80
2023/04/05 10:06:37;;;;;;;10.48;7.63;;;;;;;;;;4935998;29;20036;-79
2023/04/05 10:09:03;;;;;;;8.68;7.20;;;;;;;;;;4928292;29;20035;-79
2023/04/05 10:11:30;;;;;;;9.85;7.20;;;;;;;;;;4922935;29;20048;-80
2023/04/05 10:13:57;;;;;;;10.60;7.93;;;;;;;;;;4921189;29;20036;-79
2023/04/05 10:16:26;;;;;;;10.27;7.18;;;;;;;;;;4921098;29;20040;-79
2023/04/05 10:18:52;;;;;;;10.38;7.78;;;;;;;;;;4903547;29;20395;-79
2023/04/05 10:21:22;;;;;;;10.90;7.38;;;;;;;;;;4920424;29;20024;-79
2023/04/05 10:23:55;;;;;;;10.50;7.20;;;;;;;;;;4920498;29;20028;-79
2023/04/05 10:26:36;;;;;;;9.70;6.60;;;;;;;;;;4924796;29;20028;-79
2023/04/05 10:29:06;;;;;;;9.48;6.97;;;;;;;;;;4910235;29;20042;-79
2023/04/05 10:31:32;;;;;;;7.88;6.60;;;;;;;;;;4928507;29;20386;-79
2023/04/05 10:34:01;;;;;;;10.70;6.90;;;;;;;;;;4928747;29;20494;-79
2023/04/05 10:36:49;;;;;;;11.75;6.88;;;;;;;;;;4921132;29;20164;-79
2023/04/05 10:39:15;;;;;;;10.32;7.82;;;;;;;;;;4920248;29;20028;-79
2023/04/05 10:41:46;;;;;;;9.38;6.70;;;;;;;;;;4920536;29;20103;-79
2023/04/05 10:44:12;;;;;;;8.68;6.00;;;;;;;;;;4923959;29;20034;-79
2023/04/05 10:46:39;;;;;;;11.02;7.07;;;;;;;;;;4938932;29;20041;-79
2023/04/05 10:49:05;;;;;;;8.82;6.72;;;;;;;;;;4920132;29;20064;-79
2023/04/05 10:51:32;;;;;;;9.15;6.35;;;;;;;;;;4920646;29;20020;-80
2023/04/05 10:53:59;;;;;;;9.90;6.82;;;;;;;;;;4922040;29;20032;-80
2023/04/05 10:56:26;;;;;;;8.27;6.65;;;;;;;;;;4919612;29;20084;-79
2023/04/05 10:58:52;;;;;;;13.00;6.72;;;;;;;;;;4919756;29;20024;-79
2023/04/05 11:01:20;;;;;;;10.80;6.93;;;;;;;;;;4918891;29;20070;-79
2023/04/05 11:03:49;;;;;;;10.05;6.95;;;;;;;;;;4918095;29;20467;-78
2023/04/05 11:06:31;;;;;;;8.88;6.90;;;;;;;;;;4921759;29;20039;-78
2023/04/05 11:08:57;;;;;;;8.52;6.38;;;;;;;;;;4930730;29;20024;-78
2023/04/05 11:11:25;;;;;;;7.90;6.22;;;;;;;;;;4935529;29;20103;-78
2023/04/05 11:13:55;;;;;;;10.30;6.50;;;;;;;;;;4935506;29;20071;-78
2023/04/05 11:16:21;;;;;;;9.35;6.57;;;;;;;;;;4935538;29;20032;-78
2023/04/05 11:18:49;;;;;;;9.40;6.72;;;;;;;;;;4920079;29;20027;-79
2023/04/05 11:21:22;;;;;;;8.50;6.22;;;;;;;;;;4938403;29;20028;-79
2023/04/05 11:24:02;;;;;;;9.23;6.65;;;;;;;;;;4938315;29;20032;-78
2023/04/05 11:26:40;;;;;;;8.15;6.13;;;;;;;;;;4937059;29;20054;-78
2023/04/05 11:29:06;;;;;;;12.73;6.47;;;;;;;;;;4937654;29;20082;-79
2023/04/05 11:31:32;;;;;;;6.47;5.20;;;;;;;;;;4935463;29;20386;-79
2023/04/05 11:34:11;;;;;;;8.73;6.28;;;;;;;;;;4936391;29;20047;-78
2023/04/05 11:36:44;;;;;;;8.27;5.95;;;;;;;;;;4918820;29;20637;-78
2023/04/05 11:39:22;;;;;;;10.93;7.03;;;;;;;;;;4917755;29;20415;-78
2023/04/05 11:42:04;;;;;;;8.15;5.78;;;;;;;;;;4918895;29;20039;-78
2023/04/05 11:44:51;;;;;;;10.13;6.15;;;;;;;;;;4901354;29;20028;-79
2023/04/05 11:47:20;;;;;;;8.65;6.38;;;;;;;;;;4918104;29;20036;-79
2023/04/05 11:49:49;;;;;;;11.63;5.95;;;;;;;;;;4902665;29;20123;-79
2023/04/05 11:52:17;;;;;;;10.18;6.10;;;;;;;;;;4917895;29;20475;-79
2023/04/05 11:54:47;;;;;;;10.23;6.22;;;;;;;;;;4917584;29;20029;-78
2023/04/05 11:57:21;;;;;;;12.40;6.38;;;;;;;;;;4921112;29;20483;-78
2023/04/05 11:59:50;;;;;;;9.93;6.18;;;;;;;;;;4916562;29;20031;-78
2023/04/05 12:02:17;;;;;;;7.43;5.75;;;;;;;;;;4916853;29;20247;-78
2023/04/05 12:04:43;;;;;;;9.82;5.70;;;;;;;;;;4916982;29;20079;-78
2023/04/05 12:07:09;;;;;;;10.55;6.60;;;;;;;;;;4917102;29;20113;-79
2023/04/05 12:09:36;;;;;;;17.77;6.82;;;;;;;;;;4916907;29;20028;-78
2023/04/05 12:12:02;;;;;;;10.80;6.00;;;;;;;;;;4920634;29;20471;-78
2023/04/05 12:14:28;;;;;;;10.23;6.35;;;;;;;;;;4936584;29;20031;-79
2023/04/05 12:16:54;;;;;;;10.55;6.50;;;;;;;;;;4936220;29;20337;-78
2023/04/05 12:19:21;;;;;;;12.13;6.63;;;;;;;;;;4918804;29;20032;-79
2023/04/05 12:21:47;;;;;;;9.25;6.55;;;;;;;;;;4924758;29;20498;-78
2023/04/05 12:24:13;;;;;;;11.90;6.45;;;;;;;;;;4917897;29;20430;-78
2023/04/05 12:26:39;;;;;;;10.20;6.30;;;;;;;;;;4917268;29;20028;-78
2023/04/05 12:29:05;;;;;;;9.20;6.22;;;;;;;;;;4917246;29;20036;-78
2023/04/05 12:31:41;;;;;;;9.80;6.60;;;;;;;;;;4916524;29;20444;-78
2023/04/05 12:34:08;;;;;;;11.27;6.85;;;;;;;;;;4916417;29;20591;-78
2023/04/05 12:36:34;;;;;;;9.90;6.18;;;;;;;;;;4916807;29;20039;-78
2023/04/05 12:39:01;;;;;;;9.45;6.43;;;;;;;;;;4918297;29;20028;-77
2023/04/05 12:41:28;;;;;;;11.35;6.03;;;;;;;;;;4918557;29;20489;-79
2023/04/05 12:44:00;;;;;;;8.88;6.30;;;;;;;;;;4919416;29;20110;-80
2023/04/05 12:46:43;;;;;;;9.35;6.63;;;;;;;;;;4919859;29;20032;-79
2023/04/05 12:49:14;;;;;;;9.80;6.25;;;;;;;;;;4926242;29;20027;-79
2023/04/05 12:51:42;;;;;;;8.93;6.43;;;;;;;;;;4939142;29;20032;-79
2023/04/05 12:54:11;;;;;;;8.93;6.90;;;;;;;;;;4922037;29;20019;-79
2023/04/05 12:56:55;;;;;;;9.15;6.88;;;;;;;;;;4938439;29;20078;-79
2023/04/05 12:59:22;;;;;;;10.68;6.90;;;;;;;;;;4937247;29;20074;-78
2023/04/05 13:01:49;;;;;;;10.48;6.28;;;;;;;;;;4936209;29;20039;-78
2023/04/05 13:04:15;;;;;;;8.63;6.45;;;;;;;;;;4935345;29;20182;-78
2023/04/05 13:06:41;;;;;;;9.55;7.10;;;;;;;;;;4933371;29;20049;-78
2023/04/05 13:09:07;;;;;;;8.48;6.55;;;;;;;;;;4933551;29;20499;-78
2023/04/05 13:11:33;;;;;;;9.95;6.32;;;;;;;;;;4934189;29;20020;-78
2023/04/05 13:13:59;;;;;;;13.50;7.97;;;;;;;;;;4932269;29;20156;-78
2023/04/05 13:16:26;;;;;;;9.88;6.32;;;;;;;;;;4933689;29;20114;-78
2023/04/05 13:18:52;;;;;;;9.98;6.13;;;;;;;;;;4934261;29;20027;-78
2023/04/05 13:21:17;;;;;;;8.23;6.18;;;;;;;;;;4933875;29;20427;-78
2023/04/05 13:23:43;;;;;;;7.53;5.80;;;;;;;;;;4935221;29;20032;-78
2023/04/05 13:26:10;;;;;;;7.85;5.80;;;;;;;;;;4921235;29;20060;-78
2023/04/05 13:28:36;;;;;;;8.15;5.68;;;;;;;;;;4916606;29;20471;-78
2023/04/05 13:31:07;;;;;;;9.23;6.00;;;;;;;;;;4933346;29;20028;-78
2023/04/05 13:33:33;;;;;;;8.48;5.72;;;;;;;;;;4945594;29;20027;-78
2023/04/05 13:35:59;;;;;;;12.25;6.30;;;;;;;;;;4933079;29;20360;-77
2023/04/05 13:38:25;;;;;;;7.72;5.68;;;;;;;;;;4918330;29;20024;-77
2023/04/05 13:40:51;;;;;;;7.55;5.70;;;;;;;;;;4938203;29;20113;-77
2023/04/05 13:43:17;;;;;;;8.02;5.50;;;;;;;;;;4935634;29;20059;-78
2023/04/05 13:45:43;;;;;;;8.32;5.70;;;;;;;;;;4936320;29;20567;-78
2023/04/05 13:48:09;;;;;;;7.85;5.57;;;;;;;;;;4935264;29;20051;-78
2023/04/05 13:50:35;;;;;;;8.27;5.50;;;;;;;;;;4936538;29;20442;-77
2023/04/05 13:53:01;;;;;;;8.65;5.50;;;;;;;;;;4936070;29;20027;-77
2023/04/05 13:55:27;;;;;;;8.98;5.80;;;;;;;;;;4936209;29;20151;-79
2023/04/05 13:57:53;;;;;;;8.88;5.72;;;;;;;;;;4938307;29;20090;-78
2023/04/05 14:00:19;;;;;;;9.18;5.63;;;;;;;;;;4937242;29;20035;-78
2023/04/05 14:02:45;;;;;;;8.65;5.75;;;;;;;;;;4938907;29;20019;-78
2023/04/05 14:05:11;;;;;;;7.82;6.13;;;;;;;;;;4941486;29;20099;-80
2023/04/05 14:07:37;;;;;;;8.63;5.93;;;;;;;;;;4944879;29;20032;-81
2023/04/05 14:10:05;;;;;;;8.52;6.55;;;;;;;;;;4936494;29;20095;-80
2023/04/05 14:12:31;;;;;;;8.38;5.78;;;;;;;;;;4927909;29;20594;-80
2023/04/05 14:14:58;;;;;;;9.05;6.65;;;;;;;;;;4925456;29;20051;-80
2023/04/05 14:17:24;;;;;;;10.27;6.25;;;;;;;;;;4922276;29;20047;-80
2023/04/05 14:19:50;;;;;;;9.68;6.72;;;;;;;;;;4943034;29;20023;-80
2023/04/05 14:22:16;;;;;;;7.88;6.15;;;;;;;;;;4943576;29;20051;-80
2023/04/05 14:24:42;;;;;;;9.80;6.13;;;;;;;;;;4943411;29;20095;-78
2023/04/05 14:27:08;;;;;;;7.70;5.15;;;;;;;;;;4942139;29;20637;-78
2023/04/05 14:29:34;;;;;;;8.90;5.65;;;;;;;;;;4941130;29;20028;-78
2023/04/05 14:32:00;;;;;;;8.35;5.88;;;;;;;;;;4939242;29;20103;-78
2023/04/05 14:34:26;;;;;;;8.25;5.70;;;;;;;;;;4936187;29;20482;-78
2023/04/05 14:36:55;;;;;;;7.40;5.43;;;;;;;;;;4937655;29;20023;-78
2023/04/05 14:39:21;;;;;;;9.77;5.88;;;;;;;;;;4938518;29;20111;-77